Time;durP1;ratioP1;P1;durP2;ratioP2;P2;SDS_P1;SDS_P2;PMS_P1;PMS_P2;Temp;Humidity;BMP_temperature;BMP_pressure;BME280_temperature;BME280_humidity;BME280_pressure;Samples;Min_cycle;Max_cycle;Signal;HPM_P1;HPM_P2
2021/11/22 00:02:22;;;;;;;21.70;12.65;;;;;;;;;;5069299;28;20204;-65
2021/11/22 00:04:49;;;;;;;22.33;13.90;;;;;;;;;;5069046;28;20190;-66
2021/11/22 00:07:17;;;;;;;21.38;11.93;;;;;;;;;;5069214;28;20721;-66
2021/11/22 00:09:44;;;;;;;25.67;14.07;;;;;;;;;;5064963;28;20236;-65
2021/11/22 00:12:13;;;;;;;26.80;14.50;;;;;;;;;;5072304;28;20241;-65
2021/11/22 00:14:40;;;;;;;18.67;11.90;;;;;;;;;;5073830;28;20318;-67
2021/11/22 00:17:07;;;;;;;21.55;12.52;;;;;;;;;;5075870;28;20222;-65
2021/11/22 00:19:35;;;;;;;22.05;12.38;;;;;;;;;;5074976;28;20275;-65
2021/11/22 00:22:03;;;;;;;20.25;12.45;;;;;;;;;;5075761;28;20327;-65
2021/11/22 00:24:31;;;;;;;21.27;12.77;;;;;;;;;;5074323;28;20653;-65
2021/11/22 00:27:23;;;;;;;23.83;13.07;;;;;;;;;;5076084;28;20571;-65
2021/11/22 00:30:30;;;;;;;23.63;12.23;;;;;;;;;;5075014;28;20271;-64
2021/11/22 00:33:14;;;;;;;21.50;12.13;;;;;;;;;;5076883;28;20243;-66
2021/11/22 00:35:48;;;;;;;27.15;13.70;;;;;;;;;;5076038;28;20198;-66
2021/11/22 00:38:30;;;;;;;22.27;11.55;;;;;;;;;;5076743;28;20387;-65
2021/11/22 00:40:58;;;;;;;24.15;13.75;;;;;;;;;;5076998;28;20198;-64
2021/11/22 00:43:25;;;;;;;25.80;13.48;;;;;;;;;;5074788;28;20183;-65
2021/11/22 00:46:07;;;;;;;20.08;12.07;;;;;;;;;;5076901;28;20630;-65
2021/11/22 00:48:53;;;;;;;21.55;11.70;;;;;;;;;;5077296;28;20823;-65
2021/11/22 00:51:31;;;;;;;19.95;11.75;;;;;;;;;;5075253;28;20197;-64
2021/11/22 00:53:59;;;;;;;22.23;11.93;;;;;;;;;;5070431;28;20324;-64
2021/11/22 00:56:29;;;;;;;25.65;10.38;;;;;;;;;;5074577;28;20182;-64
2021/11/22 00:58:58;;;;;;;21.60;11.80;;;;;;;;;;5077222;28;20240;-65
2021/11/22 01:01:36;;;;;;;20.90;11.20;;;;;;;;;;5075668;28;20707;-65
2021/11/22 01:07:06;;;;;;;23.70;11.23;;;;;;;;;;5074962;28;20189;-64
2021/11/22 01:09:34;;;;;;;23.88;11.05;;;;;;;;;;5074345;28;20190;-64
2021/11/22 01:12:02;;;;;;;20.10;11.73;;;;;;;;;;5074041;28;20213;-65
2021/11/22 01:14:29;;;;;;;19.67;11.23;;;;;;;;;;5073892;28;20308;-64
2021/11/22 01:16:57;;;;;;;20.77;11.00;;;;;;;;;;5074757;28;20376;-64
2021/11/22 01:19:24;;;;;;;22.25;10.60;;;;;;;;;;5074272;28;20229;-65
2021/11/22 01:21:53;;;;;;;22.65;12.07;;;;;;;;;;5075703;28;20213;-65
2021/11/22 01:24:22;;;;;;;17.85;10.65;;;;;;;;;;5074656;28;20194;-64
2021/11/22 01:26:49;;;;;;;19.63;10.40;;;;;;;;;;5074470;28;20244;-64
2021/11/22 01:29:17;;;;;;;24.45;12.65;;;;;;;;;;5074274;28;20218;-66
2021/11/22 01:31:44;;;;;;;17.77;9.90;;;;;;;;;;5074394;28;20596;-64
2021/11/22 01:34:18;;;;;;;19.13;9.88;;;;;;;;;;5075171;28;20324;-65
2021/11/22 01:36:52;;;;;;;18.42;10.27;;;;;;;;;;5073040;28;20194;-65
2021/11/22 01:39:34;;;;;;;24.88;13.88;;;;;;;;;;5075887;28;20202;-65
2021/11/22 01:42:04;;;;;;;22.30;11.70;;;;;;;;;;5074569;28;20248;-65
2021/11/22 01:44:31;;;;;;;20.17;11.43;;;;;;;;;;5074245;28;20229;-64
2021/11/22 01:46:58;;;;;;;21.83;12.27;;;;;;;;;;5073912;28;20222;-65
2021/11/22 01:49:26;;;;;;;22.23;12.95;;;;;;;;;;5074158;28;20281;-64
2021/11/22 01:51:55;;;;;;;21.02;11.90;;;;;;;;;;5074010;28;20723;-65
2021/11/22 01:54:23;;;;;;;22.55;12.43;;;;;;;;;;5072932;28;20271;-64
2021/11/22 01:56:52;;;;;;;22.25;13.43;;;;;;;;;;5074216;28;20236;-64
2021/11/22 01:59:19;;;;;;;24.10;12.25;;;;;;;;;;5073605;28;20218;-64
2021/11/22 02:01:48;;;;;;;24.73;11.75;;;;;;;;;;5073498;28;20182;-64
2021/11/22 02:04:16;;;;;;;24.58;14.07;;;;;;;;;;5074025;28;20232;-65
2021/11/22 02:06:44;;;;;;;19.40;11.73;;;;;;;;;;5073254;28;20221;-65
2021/11/22 02:09:13;;;;;;;20.02;12.90;;;;;;;;;;5073178;28;20202;-65
2021/11/22 02:11:40;;;;;;;22.63;12.02;;;;;;;;;;5072490;28;20273;-64
2021/11/22 02:14:10;;;;;;;21.02;11.05;;;;;;;;;;5072960;28;20697;-65
2021/11/22 02:16:38;;;;;;;20.48;12.43;;;;;;;;;;5072806;28;20218;-65
2021/11/22 02:19:06;;;;;;;15.95;9.65;;;;;;;;;;5073106;28;20187;-64
2021/11/22 02:21:35;;;;;;;18.33;10.75;;;;;;;;;;5072995;28;20192;-64
2021/11/22 02:24:02;;;;;;;17.95;10.10;;;;;;;;;;5073438;28;20193;-65
2021/11/22 02:26:30;;;;;;;25.42;11.90;;;;;;;;;;5072679;28;20227;-65
2021/11/22 02:28:58;;;;;;;18.38;10.95;;;;;;;;;;5073043;28;20593;-64
2021/11/22 02:31:25;;;;;;;24.55;11.35;;;;;;;;;;5072194;28;20182;-65
2021/11/22 02:33:53;;;;;;;18.65;9.35;;;;;;;;;;5072100;28;20217;-65
2021/11/22 02:36:21;;;;;;;20.67;11.55;;;;;;;;;;5072380;28;20198;-65
2021/11/22 02:38:50;;;;;;;23.85;11.40;;;;;;;;;;5072311;28;20218;-65
2021/11/22 02:41:18;;;;;;;19.77;12.10;;;;;;;;;;5072866;28;20560;-65
2021/11/22 02:43:46;;;;;;;15.25;10.25;;;;;;;;;;5072430;28;20232;-64
2021/11/22 02:46:14;;;;;;;20.45;10.18;;;;;;;;;;5072554;28;20197;-65
2021/11/22 02:48:42;;;;;;;19.00;9.57;;;;;;;;;;5072064;28;20190;-65
2021/11/22 02:51:10;;;;;;;17.95;9.45;;;;;;;;;;5072668;28;20195;-65
2021/11/22 02:53:38;;;;;;;17.65;9.23;;;;;;;;;;5072248;28;20220;-65
2021/11/22 02:56:08;;;;;;;20.75;10.43;;;;;;;;;;5072498;28;20197;-64
2021/11/22 02:58:37;;;;;;;16.88;10.05;;;;;;;;;;5072092;28;20608;-65
2021/11/22 03:01:06;;;;;;;19.92;10.30;;;;;;;;;;5072647;28;20201;-64
2021/11/22 03:03:34;;;;;;;17.88;9.50;;;;;;;;;;5072235;28;20640;-65
2021/11/22 03:06:05;;;;;;;16.05;9.70;;;;;;;;;;5072385;28;20581;-65
2021/11/22 03:08:33;;;;;;;18.90;11.30;;;;;;;;;;5071950;28;20213;-64
2021/11/22 03:11:01;;;;;;;17.73;10.40;;;;;;;;;;5072271;28;20190;-65
2021/11/22 03:13:29;;;;;;;17.50;10.60;;;;;;;;;;5071455;28;20271;-65
2021/11/22 03:15:57;;;;;;;20.17;10.93;;;;;;;;;;5072261;28;20208;-65
2021/11/22 03:18:28;;;;;;;20.58;10.40;;;;;;;;;;5071858;28;20271;-64
2021/11/22 03:20:58;;;;;;;19.00;9.88;;;;;;;;;;5072408;28;20508;-65
2021/11/22 03:23:27;;;;;;;18.27;10.07;;;;;;;;;;5071766;28;20193;-65
2021/11/22 03:25:55;;;;;;;20.20;10.85;;;;;;;;;;5072267;28;20202;-65
2021/11/22 03:28:24;;;;;;;19.38;10.65;;;;;;;;;;5071493;28;20186;-64
2021/11/22 03:30:53;;;;;;;18.38;10.57;;;;;;;;;;5072038;28;20190;-65
2021/11/22 03:33:23;;;;;;;19.02;10.57;;;;;;;;;;5071475;28;20201;-64
2021/11/22 03:35:54;;;;;;;21.02;11.35;;;;;;;;;;5071945;28;20205;-64
2021/11/22 03:38:23;;;;;;;22.95;11.10;;;;;;;;;;5071557;28;20646;-66
2021/11/22 03:40:53;;;;;;;19.77;11.02;;;;;;;;;;5071472;28;20274;-65
2021/11/22 03:43:28;;;;;;;20.63;10.32;;;;;;;;;;5071805;28;20190;-65
2021/11/22 03:45:58;;;;;;;18.63;9.90;;;;;;;;;;5070861;28;20218;-66
2021/11/22 03:48:25;;;;;;;17.88;11.10;;;;;;;;;;5071792;28;20601;-65
2021/11/22 03:50:52;;;;;;;22.90;10.77;;;;;;;;;;5071445;28;20554;-65
2021/11/22 03:53:20;;;;;;;17.88;10.35;;;;;;;;;;5071714;28;20200;-66
2021/11/22 03:55:50;;;;;;;19.83;12.00;;;;;;;;;;5071252;28;20190;-64
2021/11/22 03:58:19;;;;;;;20.92;11.68;;;;;;;;;;5071787;28;20191;-64
2021/11/22 04:00:48;;;;;;;19.27;10.48;;;;;;;;;;5071238;28;20190;-64
2021/11/22 04:03:17;;;;;;;19.63;10.07;;;;;;;;;;5071894;28;20215;-64
2021/11/22 04:05:48;;;;;;;21.02;12.05;;;;;;;;;;5071883;28;20193;-64
2021/11/22 04:08:15;;;;;;;19.33;9.75;;;;;;;;;;5071321;28;20232;-64
2021/11/22 04:10:43;;;;;;;21.67;10.52;;;;;;;;;;5071870;28;20194;-64
2021/11/22 04:13:11;;;;;;;21.90;10.70;;;;;;;;;;5071235;28;20757;-64
2021/11/22 04:15:39;;;;;;;30.08;12.95;;;;;;;;;;5071968;28;20218;-64
2021/11/22 04:18:09;;;;;;;25.95;11.88;;;;;;;;;;5071597;28;20545;-64
2021/11/22 04:20:38;;;;;;;23.02;10.57;;;;;;;;;;5071727;28;20656;-64
2021/11/22 04:23:10;;;;;;;20.05;9.90;;;;;;;;;;5071752;28;20191;-64
2021/11/22 04:25:37;;;;;;;23.77;13.05;;;;;;;;;;5071884;28;20198;-64
2021/11/22 04:28:06;;;;;;;21.92;11.02;;;;;;;;;;5071196;28;20190;-63
2021/11/22 04:30:34;;;;;;;18.73;11.43;;;;;;;;;;5071890;28;20224;-64
2021/11/22 04:33:02;;;;;;;22.05;10.18;;;;;;;;;;5071107;28;20677;-64
2021/11/22 04:35:30;;;;;;;22.83;11.90;;;;;;;;;;5071576;28;20329;-64
2021/11/22 04:37:59;;;;;;;21.00;10.43;;;;;;;;;;5071140;28;20232;-64
2021/11/22 04:40:27;;;;;;;26.02;12.30;;;;;;;;;;5071327;28;20191;-64
2021/11/22 04:42:54;;;;;;;27.67;13.70;;;;;;;;;;5071030;28;20641;-64
2021/11/22 04:45:28;;;;;;;23.10;12.27;;;;;;;;;;5071738;28;20583;-64
2021/11/22 04:47:56;;;;;;;25.23;12.52;;;;;;;;;;5071164;28;20191;-65
2021/11/22 04:50:24;;;;;;;24.20;12.60;;;;;;;;;;5071694;28;20190;-65
2021/11/22 04:52:55;;;;;;;20.75;10.43;;;;;;;;;;5071211;28;20193;-65
2021/11/22 04:55:24;;;;;;;28.75;13.07;;;;;;;;;;5071189;28;20240;-65
2021/11/22 04:57:52;;;;;;;22.38;11.27;;;;;;;;;;5073116;28;20186;-65
2021/11/22 05:00:21;;;;;;;28.58;15.45;;;;;;;;;;5074267;28;20198;-65
2021/11/22 05:02:52;;;;;;;27.80;13.40;;;;;;;;;;5074721;28;20229;-65
2021/11/22 05:05:20;;;;;;;28.08;13.85;;;;;;;;;;5074419;28;20273;-65
2021/11/22 05:07:48;;;;;;;30.08;14.50;;;;;;;;;;5074718;28;20666;-65
2021/11/22 05:10:17;;;;;;;22.75;11.32;;;;;;;;;;5074302;28;20221;-66
2021/11/22 05:12:47;;;;;;;26.83;12.60;;;;;;;;;;5074463;28;20304;-65
2021/11/22 05:15:15;;;;;;;31.13;14.20;;;;;;;;;;5074373;28;20225;-64
2021/11/22 05:17:43;;;;;;;28.30;13.38;;;;;;;;;;5074698;28;20190;-65
2021/11/22 05:20:11;;;;;;;23.35;13.23;;;;;;;;;;5074248;28;20182;-65
2021/11/22 05:22:40;;;;;;;30.15;14.43;;;;;;;;;;5074575;28;20194;-65
2021/11/22 05:25:07;;;;;;;21.73;12.57;;;;;;;;;;5073542;28;20218;-65
2021/11/22 05:27:37;;;;;;;30.20;13.88;;;;;;;;;;5074327;28;20190;-65
2021/11/22 05:30:08;;;;;;;27.88;12.10;;;;;;;;;;5074016;28;20212;-64
2021/11/22 05:32:36;;;;;;;24.98;12.85;;;;;;;;;;5074398;28;20276;-64
2021/11/22 05:35:03;;;;;;;29.25;12.18;;;;;;;;;;5073801;28;20217;-64
2021/11/22 05:37:33;;;;;;;26.75;12.88;;;;;;;;;;5074061;28;20201;-65
2021/11/22 05:40:01;;;;;;;27.58;11.82;;;;;;;;;;5073307;28;20194;-65
2021/11/22 05:42:29;;;;;;;34.55;13.13;;;;;;;;;;5073893;28;20186;-65
2021/11/22 05:44:56;;;;;;;29.52;12.35;;;;;;;;;;5073995;28;20197;-65
2021/11/22 05:47:25;;;;;;;32.00;13.88;;;;;;;;;;5073357;28;20182;-65
2021/11/22 05:49:56;;;;;;;24.88;12.73;;;;;;;;;;5073983;28;20202;-65
2021/11/22 05:52:24;;;;;;;25.25;12.60;;;;;;;;;;5073312;28;20186;-65
2021/11/22 05:54:52;;;;;;;31.52;11.55;;;;;;;;;;5073342;28;20249;-65
2021/11/22 05:57:20;;;;;;;28.35;12.80;;;;;;;;;;5074085;28;20200;-65
2021/11/22 05:59:48;;;;;;;27.15;12.75;;;;;;;;;;5073301;28;20292;-66
2021/11/22 06:02:16;;;;;;;22.85;11.50;;;;;;;;;;5073760;28;20622;-65
2021/11/22 06:04:45;;;;;;;20.23;9.32;;;;;;;;;;5073231;28;20248;-65
2021/11/22 06:07:13;;;;;;;25.48;11.52;;;;;;;;;;5073135;28;20287;-65
2021/11/22 06:09:41;;;;;;;19.80;11.55;;;;;;;;;;5072424;28;20675;-66
2021/11/22 06:12:09;;;;;;;23.13;11.75;;;;;;;;;;5073407;28;20673;-65
2021/11/22 06:14:37;;;;;;;23.65;11.50;;;;;;;;;;5073241;28;20234;-65
2021/11/22 06:17:05;;;;;;;24.73;12.38;;;;;;;;;;5072838;28;20602;-64
2021/11/22 06:19:32;;;;;;;25.23;12.40;;;;;;;;;;5073379;28;20276;-65
2021/11/22 06:22:01;;;;;;;27.13;11.63;;;;;;;;;;5072457;28;20268;-65
2021/11/22 06:24:38;;;;;;;20.98;11.00;;;;;;;;;;5070793;28;20244;-66
2021/11/22 06:27:06;;;;;;;31.77;11.30;;;;;;;;;;5060293;28;20278;-65
2021/11/22 06:29:37;;;;;;;27.98;10.48;;;;;;;;;;5064459;28;20186;-64
2021/11/22 06:32:10;;;;;;;20.67;10.40;;;;;;;;;;5060459;28;20633;-65
2021/11/22 06:34:37;;;;;;;23.75;10.82;;;;;;;;;;5052515;28;20313;-65
2021/11/22 06:37:06;;;;;;;28.17;10.10;;;;;;;;;;5054732;28;20665;-65
2021/11/22 06:39:34;;;;;;;19.55;9.27;;;;;;;;;;5052558;28;20194;-65
2021/11/22 06:42:06;;;;;;;18.42;9.73;;;;;;;;;;5055156;28;20187;-65
2021/11/22 06:44:33;;;;;;;14.90;8.25;;;;;;;;;;5054727;28;20221;-68
2021/11/22 06:47:01;;;;;;;18.02;8.80;;;;;;;;;;5068007;28;20190;-65
2021/11/22 06:49:28;;;;;;;20.15;9.88;;;;;;;;;;5064102;28;20188;-65
2021/11/22 06:51:56;;;;;;;17.20;10.77;;;;;;;;;;5056195;28;20680;-65
2021/11/22 06:54:27;;;;;;;12.93;8.73;;;;;;;;;;5068946;28;20197;-65
2021/11/22 06:56:54;;;;;;;21.77;10.85;;;;;;;;;;5052787;28;20187;-65
2021/11/22 06:59:22;;;;;;;19.08;9.85;;;;;;;;;;5062933;28;20268;-65
2021/11/22 07:01:50;;;;;;;24.45;11.80;;;;;;;;;;5066067;28;20187;-65
2021/11/22 07:04:17;;;;;;;18.40;11.27;;;;;;;;;;5051864;28;20199;-65
2021/11/22 07:06:45;;;;;;;18.25;10.48;;;;;;;;;;5055925;28;20182;-65
2021/11/22 07:09:12;;;;;;;17.90;10.80;;;;;;;;;;5069813;28;20193;-64
2021/11/22 07:11:46;;;;;;;19.35;9.55;;;;;;;;;;5069575;28;20641;-65
2021/11/22 07:14:13;;;;;;;15.57;10.02;;;;;;;;;;5055286;28;20229;-65
2021/11/22 07:16:41;;;;;;;18.40;10.60;;;;;;;;;;5055390;28;20270;-65
2021/11/22 07:19:08;;;;;;;24.25;10.68;;;;;;;;;;5051737;28;20191;-64
2021/11/22 07:21:35;;;;;;;19.92;12.43;;;;;;;;;;5051909;28;20194;-65
2021/11/22 07:24:02;;;;;;;19.50;10.10;;;;;;;;;;5052071;28;20722;-66
2021/11/22 07:26:30;;;;;;;20.30;11.15;;;;;;;;;;5055997;28;21175;-65
2021/11/22 07:28:58;;;;;;;17.73;10.15;;;;;;;;;;5052152;28;20195;-65
2021/11/22 07:31:26;;;;;;;18.77;12.05;;;;;;;;;;5056249;28;20191;-65
2021/11/22 07:33:53;;;;;;;17.35;9.25;;;;;;;;;;5055418;28;20214;-66
2021/11/22 07:36:20;;;;;;;23.20;10.93;;;;;;;;;;5054273;28;20316;-65
2021/11/22 07:38:48;;;;;;;19.27;11.45;;;;;;;;;;5068424;28;20205;-65
2021/11/22 07:41:15;;;;;;;18.60;10.10;;;;;;;;;;5069845;28;20200;-64
2021/11/22 07:43:43;;;;;;;15.82;10.55;;;;;;;;;;5069370;28;20290;-67
2021/11/22 07:46:11;;;;;;;20.15;10.93;;;;;;;;;;5069143;28;20265;-65
2021/11/22 07:48:39;;;;;;;23.83;10.50;;;;;;;;;;5069048;28;20274;-66
2021/11/22 07:51:07;;;;;;;19.25;11.20;;;;;;;;;;5055836;28;20186;-64
2021/11/22 07:53:34;;;;;;;14.20;9.00;;;;;;;;;;5054528;28;20218;-64
2021/11/22 07:56:01;;;;;;;17.88;11.85;;;;;;;;;;5056000;28;20619;-65
2021/11/22 07:58:29;;;;;;;20.80;10.80;;;;;;;;;;5055853;28;20218;-65
2021/11/22 08:00:56;;;;;;;23.08;12.73;;;;;;;;;;5053302;28;20631;-65
2021/11/22 08:03:25;;;;;;;22.50;10.52;;;;;;;;;;5054330;28;20590;-65
2021/11/22 08:05:56;;;;;;;20.23;10.98;;;;;;;;;;5067099;28;20186;-65
2021/11/22 08:08:26;;;;;;;22.80;11.70;;;;;;;;;;5069148;28;20198;-65
2021/11/22 08:11:05;;;;;;;18.02;11.07;;;;;;;;;;5065490;28;20183;-65
2021/11/22 08:13:33;;;;;;;17.83;10.82;;;;;;;;;;5048603;28;20289;-66
2021/11/22 08:16:02;;;;;;;16.13;8.95;;;;;;;;;;5045987;28;20220;-66
2021/11/22 08:18:35;;;;;;;17.45;9.20;;;;;;;;;;5048390;28;20182;-65
2021/11/22 08:21:04;;;;;;;14.80;9.07;;;;;;;;;;5063513;28;20190;-64
2021/11/22 08:23:31;;;;;;;14.88;8.70;;;;;;;;;;5063032;28;20217;-65
2021/11/22 08:26:02;;;;;;;18.90;10.10;;;;;;;;;;5066025;28;20190;-65
2021/11/22 08:28:29;;;;;;;16.95;10.52;;;;;;;;;;5064952;28;20645;-65
2021/11/22 08:30:57;;;;;;;17.92;9.85;;;;;;;;;;5061462;28;20205;-65
2021/11/22 08:33:31;;;;;;;18.85;10.80;;;;;;;;;;5054152;28;20246;-65
2021/11/22 08:36:00;;;;;;;17.13;10.35;;;;;;;;;;5063033;28;20218;-64
2021/11/22 08:38:28;;;;;;;16.45;9.75;;;;;;;;;;5055023;28;20199;-65
2021/11/22 08:40:55;;;;;;;22.10;9.80;;;;;;;;;;5058528;28;20277;-65
2021/11/22 08:43:25;;;;;;;13.25;7.53;;;;;;;;;;5056213;28;20584;-66
2021/11/22 08:45:54;;;;;;;14.45;8.10;;;;;;;;;;5055797;28;20701;-65
2021/11/22 08:48:25;;;;;;;13.20;8.50;;;;;;;;;;5067833;28;20186;-65
2021/11/22 08:50:53;;;;;;;17.85;9.02;;;;;;;;;;5055537;28;20187;-65
2021/11/22 08:53:22;;;;;;;19.90;9.77;;;;;;;;;;5054154;28;20277;-66
2021/11/22 08:55:50;;;;;;;16.02;10.32;;;;;;;;;;5056557;28;20210;-66
2021/11/22 08:58:19;;;;;;;18.63;9.65;;;;;;;;;;5055257;28;20193;-66
2021/11/22 09:00:50;;;;;;;11.10;7.63;;;;;;;;;;5066675;28;20197;-65
2021/11/22 09:03:17;;;;;;;15.95;8.65;;;;;;;;;;5065437;28;20186;-66
2021/11/22 09:05:45;;;;;;;16.05;7.82;;;;;;;;;;5053844;28;20191;-66
2021/11/22 09:08:13;;;;;;;13.30;8.10;;;;;;;;;;5060882;28;20191;-65
2021/11/22 09:10:42;;;;;;;13.52;8.50;;;;;;;;;;5053803;28;20193;-66
2021/11/22 09:13:14;;;;;;;16.23;9.63;;;;;;;;;;5053826;28;20227;-65
2021/11/22 09:15:42;;;;;;;15.23;8.77;;;;;;;;;;5056173;28;20218;-65
2021/11/22 09:18:12;;;;;;;17.95;10.60;;;;;;;;;;5053508;28;20658;-65
2021/11/22 09:20:40;;;;;;;20.27;9.98;;;;;;;;;;5057200;28;20195;-65
2021/11/22 09:23:11;;;;;;;20.75;11.10;;;;;;;;;;5053047;28;20198;-66
2021/11/22 09:25:39;;;;;;;17.13;10.25;;;;;;;;;;5068148;28;20315;-66
2021/11/22 09:28:10;;;;;;;15.07;9.95;;;;;;;;;;5071167;28;20240;-65
2021/11/22 09:30:42;;;;;;;16.90;9.82;;;;;;;;;;5069952;28;20343;-65
2021/11/22 09:33:11;;;;;;;15.45;8.65;;;;;;;;;;5070762;28;20279;-66
2021/11/22 09:35:45;;;;;;;13.45;9.73;;;;;;;;;;5058759;28;20214;-65
2021/11/22 09:38:16;;;;;;;17.58;12.13;;;;;;;;;;5066755;28;20212;-66
2021/11/22 09:40:44;;;;;;;18.90;11.68;;;;;;;;;;5056484;28;20203;-65
2021/11/22 09:43:27;;;;;;;14.93;11.93;;;;;;;;;;5053024;28;20195;-65
2021/11/22 09:45:54;;;;;;;11.95;8.77;;;;;;;;;;5057046;28;20281;-64
2021/11/22 09:48:22;;;;;;;13.40;8.35;;;;;;;;;;5054215;28;20191;-66
2021/11/22 09:50:49;;;;;;;13.77;9.10;;;;;;;;;;5053048;28;20199;-67
2021/11/22 09:53:21;;;;;;;14.93;9.38;;;;;;;;;;5052735;28;20223;-67
2021/11/22 09:55:49;;;;;;;15.13;9.50;;;;;;;;;;5054218;28;20315;-66
2021/11/22 09:58:22;;;;;;;14.32;9.10;;;;;;;;;;5060993;28;20190;-67
2021/11/22 10:00:53;;;;;;;12.70;8.50;;;;;;;;;;5066910;28;20287;-66
2021/11/22 10:03:22;;;;;;;14.45;9.98;;;;;;;;;;5070062;28;20708;-66
2021/11/22 10:05:58;;;;;;;16.42;8.88;;;;;;;;;;5052696;28;20642;-66
2021/11/22 10:08:26;;;;;;;13.38;9.32;;;;;;;;;;5053804;28;20178;-66
2021/11/22 10:10:54;;;;;;;12.43;8.65;;;;;;;;;;5070112;28;20197;-67
2021/11/22 10:13:28;;;;;;;19.20;10.15;;;;;;;;;;5054898;28;20581;-66
2021/11/22 10:15:56;;;;;;;11.57;7.63;;;;;;;;;;5070155;28;20238;-66
2021/11/22 10:18:25;;;;;;;13.50;8.43;;;;;;;;;;5064142;28;20638;-66
2021/11/22 10:20:53;;;;;;;13.02;7.80;;;;;;;;;;5060965;28;20220;-66
2021/11/22 10:23:22;;;;;;;15.18;10.27;;;;;;;;;;5062403;28;20244;-66
2021/11/22 10:25:50;;;;;;;13.68;9.02;;;;;;;;;;5051950;28;20186;-66
2021/11/22 10:28:18;;;;;;;11.93;7.38;;;;;;;;;;5056079;28;20194;-67
2021/11/22 10:30:51;;;;;;;13.98;9.40;;;;;;;;;;5065899;28;20194;-66
2021/11/22 10:33:20;;;;;;;13.50;7.70;;;;;;;;;;5066505;28;20191;-66
2021/11/22 10:35:50;;;;;;;15.40;9.10;;;;;;;;;;5051743;28;20222;-67
2021/11/22 10:38:20;;;;;;;13.70;7.30;;;;;;;;;;5061699;28;20233;-67
2021/11/22 10:40:50;;;;;;;17.23;8.65;;;;;;;;;;5069408;28;20248;-66
2021/11/22 10:43:19;;;;;;;10.90;6.90;;;;;;;;;;5056343;28;20186;-67
2021/11/22 10:45:50;;;;;;;12.00;6.55;;;;;;;;;;5056191;28;20276;-66
2021/11/22 10:48:25;;;;;;;10.85;6.93;;;;;;;;;;5053009;28;20191;-66
2021/11/22 10:51:07;;;;;;;12.63;7.95;;;;;;;;;;5062052;28;20193;-65
2021/11/22 10:53:36;;;;;;;12.45;6.55;;;;;;;;;;5069254;28;20251;-66
2021/11/22 10:56:05;;;;;;;10.18;6.95;;;;;;;;;;5059352;28;20632;-66
2021/11/22 10:58:38;;;;;;;10.48;5.78;;;;;;;;;;5051628;28;20230;-66
2021/11/22 11:01:22;;;;;;;11.23;5.25;;;;;;;;;;5058236;28;20730;-65
2021/11/22 11:03:55;;;;;;;9.18;5.70;;;;;;;;;;5066223;28;20714;-66
2021/11/22 11:06:34;;;;;;;10.75;5.65;;;;;;;;;;5056007;28;20198;-66
2021/11/22 11:09:02;;;;;;;8.43;5.15;;;;;;;;;;5064461;28;20190;-66
2021/11/22 11:11:29;;;;;;;8.35;6.00;;;;;;;;;;5063334;28;20199;-66
2021/11/22 11:13:57;;;;;;;10.18;6.75;;;;;;;;;;5050565;28;20621;-66
2021/11/22 11:16:28;;;;;;;8.73;4.97;;;;;;;;;;5051420;28;20226;-66
2021/11/22 11:19:04;;;;;;;9.82;6.20;;;;;;;;;;5068191;28;20231;-66
2021/11/22 11:21:33;;;;;;;10.98;6.35;;;;;;;;;;5068998;28;20248;-66
2021/11/22 11:24:01;;;;;;;8.93;6.30;;;;;;;;;;5058528;28;20187;-66
2021/11/22 11:26:29;;;;;;;9.18;5.57;;;;;;;;;;5051677;28;20218;-66
2021/11/22 11:28:59;;;;;;;7.15;4.82;;;;;;;;;;5064195;28;20215;-67
2021/11/22 11:31:29;;;;;;;8.02;5.15;;;;;;;;;;5069532;28;20193;-66
2021/11/22 11:33:57;;;;;;;9.23;5.57;;;;;;;;;;5061123;28;20198;-66
2021/11/22 11:36:29;;;;;;;11.50;7.18;;;;;;;;;;5062067;28;20303;-66
2021/11/22 11:39:00;;;;;;;9.43;5.90;;;;;;;;;;5066263;28;20722;-66
2021/11/22 11:41:33;;;;;;;10.00;6.25;;;;;;;;;;5069112;28;20189;-64
2021/11/22 11:44:07;;;;;;;8.60;5.63;;;;;;;;;;5059013;28;20255;-65
2021/11/22 11:46:50;;;;;;;9.65;6.65;;;;;;;;;;5051589;28;20549;-65
2021/11/22 11:49:19;;;;;;;9.52;4.93;;;;;;;;;;5052023;28;20186;-65
2021/11/22 11:51:47;;;;;;;8.02;5.60;;;;;;;;;;5051782;28;20213;-65
2021/11/22 11:54:18;;;;;;;8.73;5.38;;;;;;;;;;5055290;28;20191;-64
2021/11/22 11:56:56;;;;;;;10.85;5.70;;;;;;;;;;5065418;28;20229;-65
2021/11/22 11:59:29;;;;;;;9.88;5.63;;;;;;;;;;5052561;28;20186;-65
2021/11/22 12:02:07;;;;;;;8.13;5.53;;;;;;;;;;5065319;28;20649;-65
2021/11/22 12:04:55;;;;;;;10.23;6.35;;;;;;;;;;5052622;28;20186;-66
2021/11/22 12:07:28;;;;;;;9.38;5.47;;;;;;;;;;5068800;28;20186;-65
2021/11/22 12:10:07;;;;;;;9.73;5.85;;;;;;;;;;5069640;28;20255;-65
2021/11/22 12:12:35;;;;;;;12.10;6.90;;;;;;;;;;5057636;28;20187;-65
2021/11/22 12:15:04;;;;;;;10.20;6.63;;;;;;;;;;5068599;28;20206;-67
2021/11/22 12:17:51;;;;;;;10.48;6.47;;;;;;;;;;5069035;28;20242;-65
2021/11/22 12:20:36;;;;;;;10.05;5.60;;;;;;;;;;5061166;28;20178;-65
2021/11/22 12:23:12;;;;;;;10.02;6.95;;;;;;;;;;5068697;28;20604;-66
2021/11/22 12:25:52;;;;;;;12.52;7.63;;;;;;;;;;5069791;28;20227;-65
2021/11/22 12:28:45;;;;;;;11.30;6.60;;;;;;;;;;5067604;28;20237;-66
2021/11/22 12:31:15;;;;;;;13.25;6.00;;;;;;;;;;5041355;28;20195;-66
2021/11/22 12:33:49;;;;;;;8.45;5.90;;;;;;;;;;5057711;28;20575;-66
2021/11/22 12:36:31;;;;;;;9.88;6.05;;;;;;;;;;5055131;28;20225;-66
2021/11/22 12:39:04;;;;;;;9.00;5.18;;;;;;;;;;5060758;28;20198;-66
2021/11/22 12:41:37;;;;;;;9.45;6.03;;;;;;;;;;5054924;28;20206;-66
2021/11/22 12:44:10;;;;;;;9.40;6.40;;;;;;;;;;5058986;28;20225;-66
2021/11/22 12:46:45;;;;;;;17.88;9.43;;;;;;;;;;5054676;28;20187;-66
2021/11/22 12:49:34;;;;;;;13.00;6.40;;;;;;;;;;5070208;28;20182;-67
2021/11/22 12:52:20;;;;;;;12.50;7.28;;;;;;;;;;5073194;28;20201;-66
2021/11/22 12:54:52;;;;;;;13.13;7.78;;;;;;;;;;5057703;28;20525;-66
2021/11/22 12:57:21;;;;;;;10.75;6.63;;;;;;;;;;5067069;28;20553;-66
2021/11/22 13:00:03;;;;;;;9.85;6.60;;;;;;;;;;5064398;28;20256;-66
2021/11/22 13:02:43;;;;;;;9.77;5.40;;;;;;;;;;5068813;28;20186;-66
2021/11/22 13:05:30;;;;;;;8.27;5.22;;;;;;;;;;5056178;28;20211;-67
2021/11/22 13:07:57;;;;;;;10.00;4.68;;;;;;;;;;5059473;28;20244;-66
2021/11/22 13:10:38;;;;;;;7.38;4.82;;;;;;;;;;5054527;28;20187;-66
2021/11/22 13:13:25;;;;;;;12.70;7.05;;;;;;;;;;5055716;28;20223;-66
2021/11/22 13:15:58;;;;;;;9.10;5.47;;;;;;;;;;5068343;28;20194;-66
2021/11/22 13:18:26;;;;;;;6.95;4.40;;;;;;;;;;5069643;28;20296;-67
2021/11/22 13:20:54;;;;;;;6.45;4.90;;;;;;;;;;5066816;28;20273;-66
2021/11/22 13:23:22;;;;;;;7.95;4.95;;;;;;;;;;5059233;28;20230;-66
2021/11/22 13:25:54;;;;;;;7.63;5.32;;;;;;;;;;5052457;28;20202;-66
2021/11/22 13:28:22;;;;;;;8.93;5.53;;;;;;;;;;5054635;28;20240;-66
2021/11/22 13:30:50;;;;;;;7.22;5.50;;;;;;;;;;5070118;28;20264;-65
2021/11/22 13:33:18;;;;;;;8.35;4.90;;;;;;;;;;5068488;28;20553;-66
2021/11/22 13:35:46;;;;;;;7.32;5.25;;;;;;;;;;5069222;28;20194;-67
2021/11/22 13:38:16;;;;;;;9.80;5.82;;;;;;;;;;5050876;28;20265;-68
2021/11/22 13:40:44;;;;;;;7.10;4.32;;;;;;;;;;5053018;28;20243;-70
2021/11/22 13:43:15;;;;;;;9.85;6.30;;;;;;;;;;5053581;28;20187;-66
2021/11/22 13:45:43;;;;;;;8.48;5.30;;;;;;;;;;5067019;28;20198;-66
2021/11/22 13:48:10;;;;;;;8.52;5.55;;;;;;;;;;5054917;28;20194;-66
2021/11/22 13:50:44;;;;;;;9.38;6.63;;;;;;;;;;5052615;28;20230;-69
2021/11/22 13:53:13;;;;;;;8.98;5.88;;;;;;;;;;5061228;28;20594;-66
2021/11/22 13:55:41;;;;;;;8.60;5.30;;;;;;;;;;5052585;28;20674;-67
2021/11/22 13:58:13;;;;;;;11.57;6.80;;;;;;;;;;5052340;28;20745;-66
2021/11/22 14:00:42;;;;;;;9.90;6.65;;;;;;;;;;5055076;28;20244;-67
2021/11/22 14:03:11;;;;;;;7.50;5.00;;;;;;;;;;5056236;28;20190;-66
2021/11/22 14:05:40;;;;;;;9.65;5.78;;;;;;;;;;5052602;28;20544;-67
2021/11/22 14:08:09;;;;;;;10.77;6.40;;;;;;;;;;5064721;28;20239;-65
2021/11/22 14:10:38;;;;;;;7.72;5.15;;;;;;;;;;5063288;28;20314;-65
2021/11/22 14:13:10;;;;;;;10.50;6.70;;;;;;;;;;5023635;28;1314001;-66
2021/11/22 14:15:38;;;;;;;8.05;5.30;;;;;;;;;;5067862;28;20205;-66
2021/11/22 14:18:12;;;;;;;10.55;6.80;;;;;;;;;;5070328;28;21433;-66
2021/11/22 14:20:45;;;;;;;9.05;6.00;;;;;;;;;;5053358;28;20319;-67
2021/11/22 14:23:13;;;;;;;9.13;6.25;;;;;;;;;;5058170;28;20318;-66
2021/11/22 14:25:41;;;;;;;8.77;5.88;;;;;;;;;;5070483;28;20286;-66
2021/11/22 14:28:15;;;;;;;10.30;6.82;;;;;;;;;;5070023;28;20241;-66
2021/11/22 14:30:43;;;;;;;10.77;5.90;;;;;;;;;;5066700;28;20201;-66
2021/11/22 14:33:16;;;;;;;10.75;7.22;;;;;;;;;;5066835;28;20187;-66
2021/11/22 14:35:47;;;;;;;11.82;7.07;;;;;;;;;;5052684;28;20201;-66
2021/11/22 14:38:19;;;;;;;10.95;7.15;;;;;;;;;;5054111;28;20222;-65
2021/11/22 14:40:49;;;;;;;13.88;8.75;;;;;;;;;;5052561;28;20195;-66
2021/11/22 14:43:17;;;;;;;12.45;8.05;;;;;;;;;;5064839;28;20182;-66
2021/11/22 14:45:46;;;;;;;15.23;10.98;;;;;;;;;;5054520;28;20194;-66
2021/11/22 14:48:21;;;;;;;13.57;8.63;;;;;;;;;;5056197;28;20179;-65